Impacts TAF Board
For situational awareness. Not to be used for flight planning purposes.
IDs:

KFLG - Flagstaff/Pulliam Ar, AZ, US

Issued at 1720 UTC 01 Feb 2023
Updated at 2225 UTC 01 Feb 2023
Potential Impact None Slight Moderate High
Time2157Z 01/23Z 02/00Z 02/01Z 02/02Z 02/03Z 02/04Z 02/05Z 02/06Z 02/07Z 02/08Z 02/09Z 02/10Z 02/11Z>>
Type OBS PRVL PRVL PRVL PRVL PRVL PRVL PRVL PRVL PRVL PRVL PRVL PRVL PRVL
VIS 10 >6 >6 >6 >6 >6 >6 >6 >6 >6 >6 >6 >6 >6
CIG -- -- -- -- -- -- -- -- -- -- -- -- -- --
Cover CLR SKC SKC SKC SKC SKC SKC SKC SKC SKC SKC SKC SKC SKC
FltCat VFR VFR VFR VFR VFR VFR VFR VFR VFR VFR VFR VFR VFR VFR
WX -- -- -- -- -- -- -- -- -- -- -- -- -- --
WDir 100 70 70 VRB VRB VRB VRB VRB VRB VRB VRB VRB VRB VRB
WSpd 11 9 9 6 6 6 6 6 6 6 6 6 6 6
WGst -- 16 16 -- -- -- -- -- -- -- -- -- -- --
WSHgt -- -- -- -- -- -- -- -- -- -- -- -- -- --
WSDir -- -- -- -- -- -- -- -- -- -- -- -- -- --
WSSpd -- -- -- -- -- -- -- -- -- -- -- -- -- --
R03/21
XWnd -9 -4 -4 VRB VRB VRB VRB VRB VRB VRB VRB VRB VRB VRB
XGst -- -8 -8 -- -- -- -- -- -- -- -- -- -- --
HWnd 6 8 8 VRB VRB VRB VRB VRB VRB VRB VRB VRB VRB VRB
HGst -- 14 14 -- -- -- -- -- -- -- -- -- -- --

NOTE: LAMP data beyond the time of the TAF data is denoted as LAMP in Type and colored magenta.

Raw TAF
KFLG 011720Z 0118/0218 07009G16KT P6SM SKC
  FM020100 VRB06KT P6SM SKC


Raw METAR
KFLG 012157Z 10011KT 10SM CLR 02/M09 A3014 RMK AO2 SLP210 T00221089
KFLG 012057Z 06009KT 10SM CLR 02/M09 A3014 RMK AO2 SLP213 T00171089 58011
KFLG 011957Z 05012KT 10SM CLR 01/M09 A3016 RMK AO2 SLP218 T00111094

METAR Board
Radar Display
Forecast Discussion

For situational awareness. Not to be used for flight planning purposes.